sensor_id;sensor_type;location;lat;lon;timestamp;temperature;humidity
6377;DHT22;3221;48.858;10.128;2023-01-16T00:01:26;1.20;99.90
6377;DHT22;3221;48.858;10.128;2023-01-16T00:03:53;1.30;99.90
6377;DHT22;3221;48.858;10.128;2023-01-16T00:06:21;1.30;99.90
6377;DHT22;3221;48.858;10.128;2023-01-16T00:08:47;1.20;99.90
6377;DHT22;3221;48.858;10.128;2023-01-16T00:11:15;1.20;99.90
6377;DHT22;3221;48.858;10.128;2023-01-16T00:13:42;1.20;99.90
6377;DHT22;3221;48.858;10.128;2023-01-16T00:16:09;1.20;99.90
6377;DHT22;3221;48.858;10.128;2023-01-16T00:18:36;1.20;99.90
6377;DHT22;3221;48.858;10.128;2023-01-16T00:21:03;1.20;99.90
6377;DHT22;3221;48.858;10.128;2023-01-16T00:23:29;1.20;99.90
6377;DHT22;3221;48.858;10.128;2023-01-16T00:25:56;1.10;99.90
6377;DHT22;3221;48.858;10.128;2023-01-16T00:28:23;1.10;99.90
6377;DHT22;3221;48.858;10.128;2023-01-16T00:30:50;1.10;99.90
6377;DHT22;3221;48.858;10.128;2023-01-16T00:33:17;1.10;99.90
6377;DHT22;3221;48.858;10.128;2023-01-16T00:35:45;1.20;99.90
6377;DHT22;3221;48.858;10.128;2023-01-16T00:38:12;1.20;99.90
6377;DHT22;3221;48.858;10.128;2023-01-16T00:40:39;1.20;99.90
6377;DHT22;3221;48.858;10.128;2023-01-16T00:43:06;1.20;99.90
6377;DHT22;3221;48.858;10.128;2023-01-16T00:45:33;1.10;99.90
6377;DHT22;3221;48.858;10.128;2023-01-16T00:48:00;1.20;99.90
6377;DHT22;3221;48.858;10.128;2023-01-16T00:50:27;1.30;99.90
6377;DHT22;3221;48.858;10.128;2023-01-16T00:52:54;1.20;99.90
6377;DHT22;3221;48.858;10.128;2023-01-16T00:55:20;1.20;99.90
6377;DHT22;3221;48.858;10.128;2023-01-16T00:57:47;1.20;99.90
6377;DHT22;3221;48.858;10.128;2023-01-16T01:00:31;1.20;99.90
6377;DHT22;3221;48.858;10.128;2023-01-16T01:03:17;1.20;99.90
6377;DHT22;3221;48.858;10.128;2023-01-16T01:05:48;1.20;99.90
6377;DHT22;3221;48.858;10.128;2023-01-16T01:08:15;1.20;99.90
6377;DHT22;3221;48.858;10.128;2023-01-16T01:10:42;1.20;99.90
6377;DHT22;3221;48.858;10.128;2023-01-16T01:13:09;1.20;99.90
6377;DHT22;3221;48.858;10.128;2023-01-16T01:15:36;1.30;99.90
6377;DHT22;3221;48.858;10.128;2023-01-16T01:18:03;1.20;99.90
6377;DHT22;3221;48.858;10.128;2023-01-16T01:20:31;1.20;99.90
6377;DHT22;3221;48.858;10.128;2023-01-16T01:22:58;1.30;99.90
6377;DHT22;3221;48.858;10.128;2023-01-16T01:25:42;1.30;99.90
6377;DHT22;3221;48.858;10.128;2023-01-16T01:28:09;1.20;99.90
6377;DHT22;3221;48.858;10.128;2023-01-16T01:30:37;1.20;99.90
6377;DHT22;3221;48.858;10.128;2023-01-16T01:33:04;1.30;99.90
6377;DHT22;3221;48.858;10.128;2023-01-16T01:35:30;1.20;99.90
6377;DHT22;3221;48.858;10.128;2023-01-16T01:37:57;1.20;99.90
6377;DHT22;3221;48.858;10.128;2023-01-16T01:40:24;1.10;99.90
6377;DHT22;3221;48.858;10.128;2023-01-16T01:42:50;1.20;99.90
6377;DHT22;3221;48.858;10.128;2023-01-16T01:45:26;1.20;99.90
6377;DHT22;3221;48.858;10.128;2023-01-16T01:48:00;1.20;99.90
6377;DHT22;3221;48.858;10.128;2023-01-16T01:55:51;1.30;99.90
6377;DHT22;3221;48.858;10.128;2023-01-16T01:58:22;1.30;99.90
6377;DHT22;3221;48.858;10.128;2023-01-16T02:00:54;1.30;99.90
6377;DHT22;3221;48.858;10.128;2023-01-16T02:03:30;1.30;99.90
6377;DHT22;3221;48.858;10.128;2023-01-16T02:06:00;1.30;99.90
6377;DHT22;3221;48.858;10.128;2023-01-16T02:08:31;1.20;99.90
6377;DHT22;3221;48.858;10.128;2023-01-16T02:11:07;1.30;99.90
6377;DHT22;3221;48.858;10.128;2023-01-16T02:13:36;1.30;99.90
6377;DHT22;3221;48.858;10.128;2023-01-16T02:16:04;1.30;99.90
6377;DHT22;3221;48.858;10.128;2023-01-16T02:18:49;1.30;99.90
6377;DHT22;3221;48.858;10.128;2023-01-16T02:21:59;1.30;99.90
6377;DHT22;3221;48.858;10.128;2023-01-16T02:24:46;1.20;99.90
6377;DHT22;3221;48.858;10.128;2023-01-16T02:36:27;1.20;99.90
6377;DHT22;3221;48.858;10.128;2023-01-16T02:45:09;1.10;99.90
6377;DHT22;3221;48.858;10.128;2023-01-16T02:54:23;1.10;99.90
6377;DHT22;3221;48.858;10.128;2023-01-16T02:56:27;1.10;99.90
6377;DHT22;3221;48.858;10.128;2023-01-16T02:58:56;1.10;99.90
6377;DHT22;3221;48.858;10.128;2023-01-16T03:01:24;1.20;99.90
6377;DHT22;3221;48.858;10.128;2023-01-16T03:06:38;1.10;99.90
6377;DHT22;3221;48.858;10.128;2023-01-16T03:09:13;1.20;99.90
6377;DHT22;3221;48.858;10.128;2023-01-16T03:12:27;1.20;99.90
6377;DHT22;3221;48.858;10.128;2023-01-16T03:15:03;1.10;99.90
6377;DHT22;3221;48.858;10.128;2023-01-16T03:23:51;1.10;99.90
6377;DHT22;3221;48.858;10.128;2023-01-16T03:26:27;1.10;99.90
6377;DHT22;3221;48.858;10.128;2023-01-16T03:31:46;1.10;99.90
6377;DHT22;3221;48.858;10.128;2023-01-16T03:39:24;1.00;99.90
6377;DHT22;3221;48.858;10.128;2023-01-16T03:41:55;1.00;99.90
6377;DHT22;3221;48.858;10.128;2023-01-16T03:44:32;1.00;99.90
6377;DHT22;3221;48.858;10.128;2023-01-16T03:47:00;1.00;99.90
6377;DHT22;3221;48.858;10.128;2023-01-16T03:49:34;1.00;99.90
6377;DHT22;3221;48.858;10.128;2023-01-16T03:52:05;1.00;99.90
6377;DHT22;3221;48.858;10.128;2023-01-16T03:54:56;1.00;99.90
6377;DHT22;3221;48.858;10.128;2023-01-16T03:57:30;1.00;99.90
6377;DHT22;3221;48.858;10.128;2023-01-16T03:59:58;1.00;99.90
6377;DHT22;3221;48.858;10.128;2023-01-16T04:05:27;1.00;99.90
6377;DHT22;3221;48.858;10.128;2023-01-16T04:08:05;0.90;99.90
6377;DHT22;3221;48.858;10.128;2023-01-16T04:10:37;0.80;99.90
6377;DHT22;3221;48.858;10.128;2023-01-16T04:13:08;0.80;99.90
6377;DHT22;3221;48.858;10.128;2023-01-16T04:15:40;0.80;99.90
6377;DHT22;3221;48.858;10.128;2023-01-16T04:18:08;0.80;99.90
6377;DHT22;3221;48.858;10.128;2023-01-16T04:20:36;0.80;99.90
6377;DHT22;3221;48.858;10.128;2023-01-16T04:23:04;0.80;99.90
6377;DHT22;3221;48.858;10.128;2023-01-16T04:25:31;0.80;99.90
6377;DHT22;3221;48.858;10.128;2023-01-16T04:27:57;0.80;99.90
6377;DHT22;3221;48.858;10.128;2023-01-16T04:30:24;0.80;99.90
6377;DHT22;3221;48.858;10.128;2023-01-16T04:32:51;0.80;99.90
6377;DHT22;3221;48.858;10.128;2023-01-16T04:35:18;0.80;99.90
6377;DHT22;3221;48.858;10.128;2023-01-16T04:37:45;0.90;99.90
6377;DHT22;3221;48.858;10.128;2023-01-16T04:40:12;0.90;99.90
6377;DHT22;3221;48.858;10.128;2023-01-16T04:42:39;0.80;99.90
6377;DHT22;3221;48.858;10.128;2023-01-16T04:45:06;0.80;99.90
6377;DHT22;3221;48.858;10.128;2023-01-16T04:47:33;0.80;99.90
6377;DHT22;3221;48.858;10.128;2023-01-16T04:49:59;0.80;99.90
6377;DHT22;3221;48.858;10.128;2023-01-16T04:52:26;0.80;99.90
6377;DHT22;3221;48.858;10.128;2023-01-16T04:54:53;0.80;99.90
6377;DHT22;3221;48.858;10.128;2023-01-16T04:57:20;0.70;99.90
6377;DHT22;3221;48.858;10.128;2023-01-16T04:59:46;0.70;99.90
6377;DHT22;3221;48.858;10.128;2023-01-16T05:02:13;0.70;99.90
6377;DHT22;3221;48.858;10.128;2023-01-16T05:04:40;0.80;99.90
6377;DHT22;3221;48.858;10.128;2023-01-16T05:07:07;0.80;99.90
6377;DHT22;3221;48.858;10.128;2023-01-16T05:09:34;0.80;99.90
6377;DHT22;3221;48.858;10.128;2023-01-16T05:12:00;0.80;99.90
6377;DHT22;3221;48.858;10.128;2023-01-16T05:14:27;0.70;99.90
6377;DHT22;3221;48.858;10.128;2023-01-16T05:16:54;0.70;99.90
6377;DHT22;3221;48.858;10.128;2023-01-16T05:19:21;0.60;99.90
6377;DHT22;3221;48.858;10.128;2023-01-16T05:21:47;0.60;99.90
6377;DHT22;3221;48.858;10.128;2023-01-16T05:24:14;0.60;99.90
6377;DHT22;3221;48.858;10.128;2023-01-16T05:26:41;0.60;99.90
6377;DHT22;3221;48.858;10.128;2023-01-16T05:29:08;0.60;99.90
6377;DHT22;3221;48.858;10.128;2023-01-16T05:31:35;0.50;99.90
6377;DHT22;3221;48.858;10.128;2023-01-16T05:34:02;0.50;99.90
6377;DHT22;3221;48.858;10.128;2023-01-16T05:36:29;0.50;99.90
6377;DHT22;3221;48.858;10.128;2023-01-16T05:38:56;0.60;99.90
6377;DHT22;3221;48.858;10.128;2023-01-16T05:41:22;0.60;99.90
6377;DHT22;3221;48.858;10.128;2023-01-16T05:43:49;0.60;99.90
6377;DHT22;3221;48.858;10.128;2023-01-16T05:46:16;0.50;99.90
6377;DHT22;3221;48.858;10.128;2023-01-16T05:48:44;0.50;99.90
6377;DHT22;3221;48.858;10.128;2023-01-16T05:51:11;0.60;99.90
6377;DHT22;3221;48.858;10.128;2023-01-16T05:53:41;0.50;99.90
6377;DHT22;3221;48.858;10.128;2023-01-16T05:56:09;0.50;99.90
6377;DHT22;3221;48.858;10.128;2023-01-16T05:58:37;0.50;99.90
6377;DHT22;3221;48.858;10.128;2023-01-16T06:01:04;0.50;99.90
6377;DHT22;3221;48.858;10.128;2023-01-16T06:03:31;0.50;99.90
6377;DHT22;3221;48.858;10.128;2023-01-16T06:05:58;0.40;99.90
6377;DHT22;3221;48.858;10.128;2023-01-16T06:08:28;0.40;99.90
6377;DHT22;3221;48.858;10.128;2023-01-16T06:10:56;0.40;99.90
6377;DHT22;3221;48.858;10.128;2023-01-16T06:13:23;0.40;99.90
6377;DHT22;3221;48.858;10.128;2023-01-16T06:15:50;0.40;99.90
6377;DHT22;3221;48.858;10.128;2023-01-16T06:18:16;0.40;99.90
6377;DHT22;3221;48.858;10.128;2023-01-16T06:20:43;0.40;99.90
6377;DHT22;3221;48.858;10.128;2023-01-16T06:23:10;0.40;99.90
6377;DHT22;3221;48.858;10.128;2023-01-16T06:25:37;0.40;99.90
6377;DHT22;3221;48.858;10.128;2023-01-16T06:28:04;0.40;99.90
6377;DHT22;3221;48.858;10.128;2023-01-16T06:30:31;0.40;99.90
6377;DHT22;3221;48.858;10.128;2023-01-16T06:32:57;0.40;99.90
6377;DHT22;3221;48.858;10.128;2023-01-16T06:35:24;0.40;99.90
6377;DHT22;3221;48.858;10.128;2023-01-16T06:37:51;0.40;99.90
6377;DHT22;3221;48.858;10.128;2023-01-16T06:40:18;0.40;99.90
6377;DHT22;3221;48.858;10.128;2023-01-16T06:42:46;0.40;99.90
6377;DHT22;3221;48.858;10.128;2023-01-16T06:45:13;0.40;99.90
6377;DHT22;3221;48.858;10.128;2023-01-16T06:47:40;0.30;99.90
6377;DHT22;3221;48.858;10.128;2023-01-16T06:50:07;0.30;99.90
6377;DHT22;3221;48.858;10.128;2023-01-16T06:52:34;0.30;99.90
6377;DHT22;3221;48.858;10.128;2023-01-16T06:55:01;0.30;99.90
6377;DHT22;3221;48.858;10.128;2023-01-16T06:57:28;0.30;99.90
6377;DHT22;3221;48.858;10.128;2023-01-16T06:59:55;0.30;99.90
6377;DHT22;3221;48.858;10.128;2023-01-16T07:02:22;0.30;99.90
6377;DHT22;3221;48.858;10.128;2023-01-16T07:04:48;0.40;99.90
6377;DHT22;3221;48.858;10.128;2023-01-16T07:07:15;0.40;99.90
6377;DHT22;3221;48.858;10.128;2023-01-16T07:09:42;0.40;99.90
6377;DHT22;3221;48.858;10.128;2023-01-16T07:12:09;0.40;99.90
6377;DHT22;3221;48.858;10.128;2023-01-16T07:14:36;0.40;99.90
6377;DHT22;3221;48.858;10.128;2023-01-16T07:17:21;0.40;99.90
6377;DHT22;3221;48.858;10.128;2023-01-16T07:20:10;0.30;99.90
6377;DHT22;3221;48.858;10.128;2023-01-16T07:22:55;0.20;99.90
6377;DHT22;3221;48.858;10.128;2023-01-16T07:25:29;0.10;99.90
6377;DHT22;3221;48.858;10.128;2023-01-16T07:27:58;0.10;99.90
6377;DHT22;3221;48.858;10.128;2023-01-16T07:30:25;0.10;99.90
6377;DHT22;3221;48.858;10.128;2023-01-16T07:32:52;0.00;99.90
6377;DHT22;3221;48.858;10.128;2023-01-16T07:35:19;0.00;99.90
6377;DHT22;3221;48.858;10.128;2023-01-16T07:37:46;0.00;99.90
6377;DHT22;3221;48.858;10.128;2023-01-16T07:40:13;0.00;99.90
6377;DHT22;3221;48.858;10.128;2023-01-16T07:42:39;0.10;99.90
6377;DHT22;3221;48.858;10.128;2023-01-16T07:45:07;0.10;99.90
6377;DHT22;3221;48.858;10.128;2023-01-16T07:47:34;0.10;99.90
6377;DHT22;3221;48.858;10.128;2023-01-16T07:50:01;0.10;99.90
6377;DHT22;3221;48.858;10.128;2023-01-16T07:52:28;0.10;99.90
6377;DHT22;3221;48.858;10.128;2023-01-16T07:54:55;0.10;99.90
6377;DHT22;3221;48.858;10.128;2023-01-16T07:57:22;0.10;99.90
6377;DHT22;3221;48.858;10.128;2023-01-16T07:59:48;0.20;99.90
6377;DHT22;3221;48.858;10.128;2023-01-16T08:02:15;0.20;99.90
6377;DHT22;3221;48.858;10.128;2023-01-16T08:04:42;0.30;99.90
6377;DHT22;3221;48.858;10.128;2023-01-16T08:07:09;0.30;99.90
6377;DHT22;3221;48.858;10.128;2023-01-16T08:09:36;0.30;99.90
6377;DHT22;3221;48.858;10.128;2023-01-16T08:12:03;0.30;99.90
6377;DHT22;3221;48.858;10.128;2023-01-16T08:14:30;0.30;99.90
6377;DHT22;3221;48.858;10.128;2023-01-16T08:16:57;0.30;99.90
6377;DHT22;3221;48.858;10.128;2023-01-16T08:19:24;0.30;99.90
6377;DHT22;3221;48.858;10.128;2023-01-16T08:21:51;0.30;99.90
6377;DHT22;3221;48.858;10.128;2023-01-16T08:24:18;0.40;99.90
6377;DHT22;3221;48.858;10.128;2023-01-16T08:26:45;0.40;99.90
6377;DHT22;3221;48.858;10.128;2023-01-16T08:29:12;0.50;99.90
6377;DHT22;3221;48.858;10.128;2023-01-16T08:31:38;0.50;99.90
6377;DHT22;3221;48.858;10.128;2023-01-16T08:34:05;0.60;99.90
6377;DHT22;3221;48.858;10.128;2023-01-16T08:36:32;0.60;99.90
6377;DHT22;3221;48.858;10.128;2023-01-16T08:38:59;0.70;99.90
6377;DHT22;3221;48.858;10.128;2023-01-16T08:41:26;0.90;99.90
6377;DHT22;3221;48.858;10.128;2023-01-16T08:44:15;1.00;99.90
6377;DHT22;3221;48.858;10.128;2023-01-16T08:47:12;1.10;99.90
6377;DHT22;3221;48.858;10.128;2023-01-16T08:49:59;1.30;99.90
6377;DHT22;3221;48.858;10.128;2023-01-16T08:52:44;1.50;99.90
6377;DHT22;3221;48.858;10.128;2023-01-16T08:55:12;1.60;99.90
6377;DHT22;3221;48.858;10.128;2023-01-16T08:57:39;1.70;99.90
6377;DHT22;3221;48.858;10.128;2023-01-16T09:00:06;1.80;99.90
6377;DHT22;3221;48.858;10.128;2023-01-16T09:02:33;1.90;99.90
6377;DHT22;3221;48.858;10.128;2023-01-16T09:05:03;2.00;99.90
6377;DHT22;3221;48.858;10.128;2023-01-16T09:07:30;2.00;99.90
6377;DHT22;3221;48.858;10.128;2023-01-16T09:09:57;1.90;99.90
6377;DHT22;3221;48.858;10.128;2023-01-16T09:12:24;1.90;99.90
6377;DHT22;3221;48.858;10.128;2023-01-16T09:15:09;1.80;99.90
6377;DHT22;3221;48.858;10.128;2023-01-16T09:17:36;1.80;99.90
6377;DHT22;3221;48.858;10.128;2023-01-16T09:20:03;1.80;99.90
6377;DHT22;3221;48.858;10.128;2023-01-16T09:22:31;1.70;99.90
6377;DHT22;3221;48.858;10.128;2023-01-16T09:24:59;1.80;99.90
6377;DHT22;3221;48.858;10.128;2023-01-16T09:27:26;1.90;99.90
6377;DHT22;3221;48.858;10.128;2023-01-16T09:29:53;1.90;99.90
6377;DHT22;3221;48.858;10.128;2023-01-16T09:32:20;1.80;99.90
6377;DHT22;3221;48.858;10.128;2023-01-16T09:34:47;1.70;99.90
6377;DHT22;3221;48.858;10.128;2023-01-16T09:37:13;1.60;99.90
6377;DHT22;3221;48.858;10.128;2023-01-16T09:39:40;1.50;99.90
6377;DHT22;3221;48.858;10.128;2023-01-16T09:45:03;1.60;99.90
6377;DHT22;3221;48.858;10.128;2023-01-16T09:47:32;1.60;99.90
6377;DHT22;3221;48.858;10.128;2023-01-16T09:50:15;1.60;99.90
6377;DHT22;3221;48.858;10.128;2023-01-16T09:52:46;1.80;99.90
6377;DHT22;3221;48.858;10.128;2023-01-16T09:55:44;2.00;99.90
6377;DHT22;3221;48.858;10.128;2023-01-16T09:58:31;2.00;99.90
6377;DHT22;3221;48.858;10.128;2023-01-16T10:01:19;1.90;99.90
6377;DHT22;3221;48.858;10.128;2023-01-16T10:03:48;1.80;99.90
6377;DHT22;3221;48.858;10.128;2023-01-16T10:06:23;1.80;99.90
6377;DHT22;3221;48.858;10.128;2023-01-16T10:09:11;1.80;99.90
6377;DHT22;3221;48.858;10.128;2023-01-16T10:26:22;1.60;99.90
6377;DHT22;3221;48.858;10.128;2023-01-16T10:29:19;1.60;99.90
6377;DHT22;3221;48.858;10.128;2023-01-16T10:34:25;1.60;99.90
6377;DHT22;3221;48.858;10.128;2023-01-16T10:36:55;1.60;99.90
6377;DHT22;3221;48.858;10.128;2023-01-16T10:39:29;1.60;99.90
6377;DHT22;3221;48.858;10.128;2023-01-16T10:47:42;1.60;99.90
6377;DHT22;3221;48.858;10.128;2023-01-16T10:50:28;1.60;99.90
6377;DHT22;3221;48.858;10.128;2023-01-16T10:53:04;1.60;99.90
6377;DHT22;3221;48.858;10.128;2023-01-16T10:55:33;1.60;99.90
6377;DHT22;3221;48.858;10.128;2023-01-16T10:58:04;1.60;99.90
6377;DHT22;3221;48.858;10.128;2023-01-16T11:00:34;1.60;99.90
6377;DHT22;3221;48.858;10.128;2023-01-16T11:03:16;1.60;99.90
6377;DHT22;3221;48.858;10.128;2023-01-16T11:05:45;1.60;99.90
6377;DHT22;3221;48.858;10.128;2023-01-16T11:08:18;1.60;99.90
6377;DHT22;3221;48.858;10.128;2023-01-16T11:10:47;1.60;99.90
6377;DHT22;3221;48.858;10.128;2023-01-16T11:13:21;1.60;99.90
6377;DHT22;3221;48.858;10.128;2023-01-16T11:16:20;1.70;99.90
6377;DHT22;3221;48.858;10.128;2023-01-16T11:19:21;1.60;99.90
6377;DHT22;3221;48.858;10.128;2023-01-16T11:21:59;1.70;99.90
6377;DHT22;3221;48.858;10.128;2023-01-16T11:24:39;1.70;99.90
6377;DHT22;3221;48.858;10.128;2023-01-16T11:27:12;1.70;99.90
6377;DHT22;3221;48.858;10.128;2023-01-16T11:29:40;1.70;99.90
6377;DHT22;3221;48.858;10.128;2023-01-16T11:32:13;1.70;99.90
6377;DHT22;3221;48.858;10.128;2023-01-16T11:34:45;1.70;99.90
6377;DHT22;3221;48.858;10.128;2023-01-16T11:37:15;1.70;99.90
6377;DHT22;3221;48.858;10.128;2023-01-16T11:39:47;1.80;99.90
6377;DHT22;3221;48.858;10.128;2023-01-16T11:42:15;1.80;99.90
6377;DHT22;3221;48.858;10.128;2023-01-16T11:45:13;1.80;99.90
6377;DHT22;3221;48.858;10.128;2023-01-16T11:48:01;1.80;99.90
6377;DHT22;3221;48.858;10.128;2023-01-16T11:50:52;1.80;99.90
6377;DHT22;3221;48.858;10.128;2023-01-16T11:53:19;1.90;99.90
6377;DHT22;3221;48.858;10.128;2023-01-16T11:55:55;1.90;99.90
6377;DHT22;3221;48.858;10.128;2023-01-16T12:01:31;1.90;99.90
6377;DHT22;3221;48.858;10.128;2023-01-16T12:04:22;1.90;99.90
6377;DHT22;3221;48.858;10.128;2023-01-16T12:07:14;1.90;99.90
6377;DHT22;3221;48.858;10.128;2023-01-16T12:09:58;1.90;99.90
6377;DHT22;3221;48.858;10.128;2023-01-16T12:12:34;1.90;99.90
6377;DHT22;3221;48.858;10.128;2023-01-16T12:15:25;1.90;99.90
6377;DHT22;3221;48.858;10.128;2023-01-16T12:20:53;1.90;99.90
6377;DHT22;3221;48.858;10.128;2023-01-16T12:23:48;1.90;99.90
6377;DHT22;3221;48.858;10.128;2023-01-16T12:26:28;1.90;99.90
6377;DHT22;3221;48.858;10.128;2023-01-16T12:31:59;1.90;99.90
6377;DHT22;3221;48.858;10.128;2023-01-16T12:40:07;1.90;99.90
6377;DHT22;3221;48.858;10.128;2023-01-16T12:42:56;1.90;99.90
6377;DHT22;3221;48.858;10.128;2023-01-16T12:45:57;2.00;99.90
6377;DHT22;3221;48.858;10.128;2023-01-16T12:49:08;2.00;99.90
6377;DHT22;3221;48.858;10.128;2023-01-16T12:52:06;2.00;99.90
6377;DHT22;3221;48.858;10.128;2023-01-16T12:57:12;2.10;99.90
6377;DHT22;3221;48.858;10.128;2023-01-16T13:00:02;2.20;99.90
6377;DHT22;3221;48.858;10.128;2023-01-16T13:02:40;2.20;99.90
6377;DHT22;3221;48.858;10.128;2023-01-16T13:05:16;2.20;99.90
6377;DHT22;3221;48.858;10.128;2023-01-16T13:07:52;2.20;99.90
6377;DHT22;3221;48.858;10.128;2023-01-16T13:10:33;2.20;99.90
6377;DHT22;3221;48.858;10.128;2023-01-16T13:13:24;2.30;99.90
6377;DHT22;3221;48.858;10.128;2023-01-16T13:18:42;2.30;99.90
6377;DHT22;3221;48.858;10.128;2023-01-16T13:21:24;2.30;99.90
6377;DHT22;3221;48.858;10.128;2023-01-16T13:23:56;2.40;99.90
6377;DHT22;3221;48.858;10.128;2023-01-16T13:26:25;2.40;99.90
6377;DHT22;3221;48.858;10.128;2023-01-16T13:29:13;2.40;99.90
6377;DHT22;3221;48.858;10.128;2023-01-16T13:31:51;2.40;99.90
6377;DHT22;3221;48.858;10.128;2023-01-16T13:34:35;2.40;99.90
6377;DHT22;3221;48.858;10.128;2023-01-16T13:42:47;2.50;99.90
6377;DHT22;3221;48.858;10.128;2023-01-16T13:45:31;2.50;99.90
6377;DHT22;3221;48.858;10.128;2023-01-16T13:48:22;2.50;99.90
6377;DHT22;3221;48.858;10.128;2023-01-16T13:51:09;2.50;99.90
6377;DHT22;3221;48.858;10.128;2023-01-16T13:53:37;2.50;99.90
6377;DHT22;3221;48.858;10.128;2023-01-16T13:56:13;2.50;99.90
6377;DHT22;3221;48.858;10.128;2023-01-16T13:58:45;2.50;99.90
6377;DHT22;3221;48.858;10.128;2023-01-16T14:07:02;2.60;99.90
6377;DHT22;3221;48.858;10.128;2023-01-16T14:10:03;2.60;99.90
6377;DHT22;3221;48.858;10.128;2023-01-16T14:12:42;2.60;99.90
6377;DHT22;3221;48.858;10.128;2023-01-16T14:15:43;2.60;99.90
6377;DHT22;3221;48.858;10.128;2023-01-16T14:21:19;2.60;99.90
6377;DHT22;3221;48.858;10.128;2023-01-16T14:24:01;2.60;99.90
6377;DHT22;3221;48.858;10.128;2023-01-16T14:29:20;2.70;99.90
6377;DHT22;3221;48.858;10.128;2023-01-16T14:34:27;2.70;99.90
6377;DHT22;3221;48.858;10.128;2023-01-16T14:37:05;2.70;99.90
6377;DHT22;3221;48.858;10.128;2023-01-16T14:39:46;2.80;99.90
6377;DHT22;3221;48.858;10.128;2023-01-16T14:42:33;2.70;99.90
6377;DHT22;3221;48.858;10.128;2023-01-16T14:45:29;2.70;99.90
6377;DHT22;3221;48.858;10.128;2023-01-16T14:54:11;2.80;99.90
6377;DHT22;3221;48.858;10.128;2023-01-16T14:57:14;2.80;99.90
6377;DHT22;3221;48.858;10.128;2023-01-16T14:59:58;2.80;99.90
6377;DHT22;3221;48.858;10.128;2023-01-16T15:02:31;2.80;99.90
6377;DHT22;3221;48.858;10.128;2023-01-16T15:07:50;2.80;99.90
6377;DHT22;3221;48.858;10.128;2023-01-16T15:10:31;2.80;99.90
6377;DHT22;3221;48.858;10.128;2023-01-16T15:15:48;2.90;99.90
6377;DHT22;3221;48.858;10.128;2023-01-16T15:18:18;2.90;99.90
6377;DHT22;3221;48.858;10.128;2023-01-16T15:21:14;2.90;99.90
6377;DHT22;3221;48.858;10.128;2023-01-16T15:24:01;2.90;99.90
6377;DHT22;3221;48.858;10.128;2023-01-16T15:29:48;2.90;99.90
6377;DHT22;3221;48.858;10.128;2023-01-16T15:32:18;2.90;99.90
6377;DHT22;3221;48.858;10.128;2023-01-16T15:35:03;2.90;99.90
6377;DHT22;3221;48.858;10.128;2023-01-16T15:37:30;2.90;99.90
6377;DHT22;3221;48.858;10.128;2023-01-16T15:39:59;2.90;99.90
6377;DHT22;3221;48.858;10.128;2023-01-16T15:42:29;2.90;99.90
6377;DHT22;3221;48.858;10.128;2023-01-16T15:48:16;2.80;99.90
6377;DHT22;3221;48.858;10.128;2023-01-16T15:50:56;2.80;99.90
6377;DHT22;3221;48.858;10.128;2023-01-16T15:53:25;2.80;99.90
6377;DHT22;3221;48.858;10.128;2023-01-16T15:56:03;2.70;99.90
6377;DHT22;3221;48.858;10.128;2023-01-16T15:58:31;2.70;99.90
6377;DHT22;3221;48.858;10.128;2023-01-16T16:01:03;2.60;99.90
6377;DHT22;3221;48.858;10.128;2023-01-16T16:03:42;2.60;99.90
6377;DHT22;3221;48.858;10.128;2023-01-16T16:06:12;2.60;99.90
6377;DHT22;3221;48.858;10.128;2023-01-16T16:08:43;2.60;99.90
6377;DHT22;3221;48.858;10.128;2023-01-16T16:14:05;2.50;99.90
6377;DHT22;3221;48.858;10.128;2023-01-16T16:17:03;2.50;99.90
6377;DHT22;3221;48.858;10.128;2023-01-16T16:19:49;2.50;99.90
6377;DHT22;3221;48.858;10.128;2023-01-16T16:22:23;2.40;99.90
6377;DHT22;3221;48.858;10.128;2023-01-16T16:25:25;2.50;99.90
6377;DHT22;3221;48.858;10.128;2023-01-16T16:27:52;2.40;99.90
6377;DHT22;3221;48.858;10.128;2023-01-16T16:30:26;2.40;99.90
6377;DHT22;3221;48.858;10.128;2023-01-16T16:32:54;2.40;99.90
6377;DHT22;3221;48.858;10.128;2023-01-16T16:35:33;2.40;99.90
6377;DHT22;3221;48.858;10.128;2023-01-16T16:38:01;2.40;99.90
6377;DHT22;3221;48.858;10.128;2023-01-16T16:40:29;2.40;99.90
6377;DHT22;3221;48.858;10.128;2023-01-16T16:42:59;2.40;99.90
6377;DHT22;3221;48.858;10.128;2023-01-16T16:45:31;2.40;99.90
6377;DHT22;3221;48.858;10.128;2023-01-16T16:48:26;2.40;99.90
6377;DHT22;3221;48.858;10.128;2023-01-16T16:51:31;2.40;99.90
6377;DHT22;3221;48.858;10.128;2023-01-16T16:54:04;2.40;99.90
6377;DHT22;3221;48.858;10.128;2023-01-16T16:56:36;2.40;99.90
6377;DHT22;3221;48.858;10.128;2023-01-16T16:59:04;2.50;99.90
6377;DHT22;3221;48.858;10.128;2023-01-16T17:01:36;2.50;99.90
6377;DHT22;3221;48.858;10.128;2023-01-16T17:04:05;2.40;99.90
6377;DHT22;3221;48.858;10.128;2023-01-16T17:06:34;2.40;99.90
6377;DHT22;3221;48.858;10.128;2023-01-16T17:09:02;2.40;99.90
6377;DHT22;3221;48.858;10.128;2023-01-16T17:11:30;2.40;99.90
6377;DHT22;3221;48.858;10.128;2023-01-16T17:13:57;2.40;99.90
6377;DHT22;3221;48.858;10.128;2023-01-16T17:16:25;2.40;99.90
6377;DHT22;3221;48.858;10.128;2023-01-16T17:19:03;2.40;99.90
6377;DHT22;3221;48.858;10.128;2023-01-16T17:21:30;2.50;99.90
6377;DHT22;3221;48.858;10.128;2023-01-16T17:23:57;2.40;99.90
6377;DHT22;3221;48.858;10.128;2023-01-16T17:26:24;2.40;99.90
6377;DHT22;3221;48.858;10.128;2023-01-16T17:28:51;2.40;99.90
6377;DHT22;3221;48.858;10.128;2023-01-16T17:31:20;2.40;99.90
6377;DHT22;3221;48.858;10.128;2023-01-16T17:33:47;2.40;99.90
6377;DHT22;3221;48.858;10.128;2023-01-16T17:36:23;2.40;99.90
6377;DHT22;3221;48.858;10.128;2023-01-16T17:38:50;2.50;99.90
6377;DHT22;3221;48.858;10.128;2023-01-16T17:41:19;2.50;99.90
6377;DHT22;3221;48.858;10.128;2023-01-16T17:43:48;2.50;99.90
6377;DHT22;3221;48.858;10.128;2023-01-16T17:46:34;2.40;99.90
6377;DHT22;3221;48.858;10.128;2023-01-16T17:49:01;2.40;99.90
6377;DHT22;3221;48.858;10.128;2023-01-16T17:51:28;2.50;99.90
6377;DHT22;3221;48.858;10.128;2023-01-16T17:53:55;2.40;99.90
6377;DHT22;3221;48.858;10.128;2023-01-16T17:56:22;2.50;99.90
6377;DHT22;3221;48.858;10.128;2023-01-16T17:58:49;2.50;99.90
6377;DHT22;3221;48.858;10.128;2023-01-16T18:01:29;2.50;99.90
6377;DHT22;3221;48.858;10.128;2023-01-16T18:04:00;2.50;99.90
6377;DHT22;3221;48.858;10.128;2023-01-16T18:06:38;2.50;99.90
6377;DHT22;3221;48.858;10.128;2023-01-16T18:09:06;2.50;99.90
6377;DHT22;3221;48.858;10.128;2023-01-16T18:11:38;2.50;99.90
6377;DHT22;3221;48.858;10.128;2023-01-16T18:14:41;2.50;99.90
6377;DHT22;3221;48.858;10.128;2023-01-16T18:17:26;2.50;99.90
6377;DHT22;3221;48.858;10.128;2023-01-16T18:19:57;2.50;99.90
6377;DHT22;3221;48.858;10.128;2023-01-16T18:22:28;2.50;99.90
6377;DHT22;3221;48.858;10.128;2023-01-16T18:24:55;2.50;99.90
6377;DHT22;3221;48.858;10.128;2023-01-16T18:27:22;2.50;99.90
6377;DHT22;3221;48.858;10.128;2023-01-16T18:29:50;2.50;99.90
6377;DHT22;3221;48.858;10.128;2023-01-16T18:32:17;2.50;99.90
6377;DHT22;3221;48.858;10.128;2023-01-16T18:34:57;2.50;99.90
6377;DHT22;3221;48.858;10.128;2023-01-16T18:39:57;2.50;99.90
6377;DHT22;3221;48.858;10.128;2023-01-16T18:42:42;2.50;99.90
6377;DHT22;3221;48.858;10.128;2023-01-16T18:45:28;2.50;99.90
6377;DHT22;3221;48.858;10.128;2023-01-16T18:48:14;2.50;99.90
6377;DHT22;3221;48.858;10.128;2023-01-16T18:51:01;2.50;99.90
6377;DHT22;3221;48.858;10.128;2023-01-16T18:53:50;2.50;99.90
6377;DHT22;3221;48.858;10.128;2023-01-16T18:56:38;2.50;99.90